Britney Lee — WDC2895 — position and weather

sailwx.info

Track history (hours):
 
Tides and Currents Weather Stations Pressure Air Temp Water Temp Dewpoint Dewpoint Depression Visibility Wind Speed Wind Dir Waves Ship Positions

Britney Lee

Owner: Western Rivers Boat Management, Inc., Paducah, KY. More information available from US FCC via Universal Licensing System and Coast Guard Vessel Documentation Center.

Last reported at 2015-Jun-22 18:19 UTC. Time now 2015-Jul-06 13:33 UTC.
Position N 30°44' W 091°31'.
Warning: this ship's position is 13 days out of date.

Length 44 m.

Type: Tow > 200 m length. MMSI: 367129650.

Date/timePositionNaut miles runAvg speedWind from/ knotsBaromVisibWave heightAir tempDewpointWater temp
2015-Jun-22 18:19N 30°44' W 091°31'9 4.1
2015-Jun-22 16:14N 30°43' W 091°21'3 5.2
2015-Jun-22 15:33N 30°40' W 091°19'4 4.0
2015-Jun-22 14:33N 30°36' W 091°19'3 3.5
2015-Jun-22 13:33N 30°34' W 091°15'4 3.9
2015-Jun-22 12:33N 30°30' W 091°17'2 2.3
2015-Jun-22 11:33N 30°31' W 091°14'3 3.0
2015-Jun-22 10:33N 30°29' W 091°12'4 4.0
2015-Jun-22 09:33N 30°25' W 091°12'1 1.5
2015-Jun-22 08:33N 30°24' W 091°13'0 0.0
2015-Jun-22 07:33N 30°24' W 091°13'0 0.0
2015-Jun-22 06:33N 30°24' W 091°13'0 0.0
2015-Jun-22 05:33N 30°24' W 091°13'3 3.2
2015-Jun-22 04:33N 30°20' W 091°13'4 4.0
2015-Jun-22 03:33N 30°20' W 091°09'4 4.2
2015-Jun-22 02:33N 30°18' W 091°13'4 3.6
2015-Jun-22 01:30N 30°17' W 091°10'3 3.1
2015-Jun-22 00:33N 30°14' W 091°08'53 3.1
2015-Jun-21 07:21N 29°56' W 090°11'2 2.3
2015-Jun-21 06:26N 29°56' W 090°08'3 3.6
2015-Jun-21 05:33N 29°55' W 090°05'4 3.7
2015-Jun-21 04:33N 29°57' W 090°02'5 4.3
2015-Jun-21 03:23N 29°55' W 089°57'4 3.6
2015-Jun-21 02:19N 29°52' W 089°55'3 3.7
2015-Jun-21 01:31N 29°52' W 089°58'4 0.1
2015-Jun-19 13:30N 29°55' W 089°56'6 6.7
2015-Jun-19 12:33N 29°57' W 090°03'5 4.4
2015-Jun-19 11:31N 29°56' W 090°08'55 2.0
2015-Jun-18 07:33N 30°16' W 091°07'6 5.7
2015-Jun-18 06:33N 30°19' W 091°13'3 2.9
2015-Jun-18 05:33N 30°21' W 091°11'4 3.6
2015-Jun-18 04:33N 30°24' W 091°12'4 3.8
2015-Jun-18 03:33N 30°28' W 091°12'3 3.4
2015-Jun-18 02:33N 30°31' W 091°14'2 2.4
2015-Jun-18 01:33N 30°33' W 091°14'5 4.9
2015-Jun-18 00:33N 30°37' W 091°18'  
Track history (hours):
 
Tides and Currents Weather Stations Pressure Air Temp Water Temp Dewpoint Dewpoint Depression Visibility Wind Speed Wind Dir Waves Ship Positions

Britney Lee

Owner: Western Rivers Boat Management, Inc., Paducah, KY. More information available from US FCC via Universal Licensing System and Coast Guard Vessel Documentation Center.

Last reported at 2015-Jun-22 18:19 UTC. Time now 2015-Jul-06 13:33 UTC.
Position N 30°44' W 091°31'.
Warning: this ship's position is 13 days out of date.

Length 44 m.

Type: Tow > 200 m length. MMSI: 367129650.

Date/timePositionNaut miles runAvg speedWind from/ knotsBaromVisibWave heightAir tempDewpointWater temp
2015-Jun-22 18:19N 30°44' W 091°31'9 4.1
2015-Jun-22 16:14N 30°43' W 091°21'3 5.2
2015-Jun-22 15:33N 30°40' W 091°19'4 4.0
2015-Jun-22 14:33N 30°36' W 091°19'3 3.5
2015-Jun-22 13:33N 30°34' W 091°15'4 3.9
2015-Jun-22 12:33N 30°30' W 091°17'2 2.3
2015-Jun-22 11:33N 30°31' W 091°14'3 3.0
2015-Jun-22 10:33N 30°29' W 091°12'4 4.0
2015-Jun-22 09:33N 30°25' W 091°12'1 1.5
2015-Jun-22 08:33N 30°24' W 091°13'0 0.0
2015-Jun-22 07:33N 30°24' W 091°13'0 0.0
2015-Jun-22 06:33N 30°24' W 091°13'0 0.0
2015-Jun-22 05:33N 30°24' W 091°13'3 3.2
2015-Jun-22 04:33N 30°20' W 091°13'4 4.0
2015-Jun-22 03:33N 30°20' W 091°09'4 4.2
2015-Jun-22 02:33N 30°18' W 091°13'4 3.6
2015-Jun-22 01:30N 30°17' W 091°10'3 3.1
2015-Jun-22 00:33N 30°14' W 091°08'53 3.1
2015-Jun-21 07:21N 29°56' W 090°11'2 2.3
2015-Jun-21 06:26N 29°56' W 090°08'3 3.6
2015-Jun-21 05:33N 29°55' W 090°05'4 3.7
2015-Jun-21 04:33N 29°57' W 090°02'5 4.3
2015-Jun-21 03:23N 29°55' W 089°57'4 3.6
2015-Jun-21 02:19N 29°52' W 089°55'3 3.7
2015-Jun-21 01:31N 29°52' W 089°58'4 0.1
2015-Jun-19 13:30N 29°55' W 089°56'6 6.7
2015-Jun-19 12:33N 29°57' W 090°03'5 4.4
2015-Jun-19 11:31N 29°56' W 090°08'55 2.0
2015-Jun-18 07:33N 30°16' W 091°07'6 5.7
2015-Jun-18 06:33N 30°19' W 091°13'3 2.9
2015-Jun-18 05:33N 30°21' W 091°11'4 3.6
2015-Jun-18 04:33N 30°24' W 091°12'4 3.8
2015-Jun-18 03:33N 30°28' W 091°12'3 3.4
2015-Jun-18 02:33N 30°31' W 091°14'2 2.4
2015-Jun-18 01:33N 30°33' W 091°14'5 4.9
2015-Jun-18 00:33N 30°37' W 091°18'  

Dump ship's entire track history